KSZL/SZL METAR and TAF weather

Enter ICAO airport designator
Station Type Date Time Source
KSZL METAR 2019/04/18 21:56 UTC NOAA

KSZL 182156Z 35018G22KT 10SM BKN042 BKN150 14/05 A2976 RMK AO2A SLP080 T01440052 $


Station Type Date Time Source
KSZL Decoded METAR 2019/04/18 21:56 UTC NOAA

Whiteman Air Force Base, MO, United States (KSZL) 38-44N 093-33W
Apr 18, 2019 - 05:56 PM EDT / 2019.04.18 2156 UTC
Wind: from the N (350 degrees) at 21 MPH (18 KT) gusting to 25 MPH (22 KT):0
Visibility: 10 mile(s):0
Sky conditions: mostly cloudy
Temperature: 57.9 F (14.4 C)
Dew Point: 41.4 F (5.2 C)
Relative Humidity: 53%
Pressure (altimeter): 29.76 in. Hg (1007 hPa)
ob: KSZL 182156Z 35018G22KT 10SM BKN042 BKN150 14/05 A2976 RMK AO2A SLP080 T01440052
cycle: 22

Station Type Date Time Source
KSZL TAF 2019/04/18 19:59 UTC NOAA

TAF KSZL 181900Z 1819/2001 34012G20KT 9999 BKN040 QNH2979INS
BECMG 1822/1823 35009KT 9999 OVC030 QNH2981INS
BECMG 1913/1914 36015G25KT 9999 BKN035 QNH2995INS
BECMG 1921/1922 35009KT 9999 SKC QNH2992INS TX17/1919Z TN06/1910Z

Example: see airport list